createdAt,value
2018-12-10T13:27:31.196Z,10.20
2018-12-10T13:48:09.445Z,9.80
2018-12-10T13:50:43.797Z,9.80
2018-12-10T15:09:19.954Z,8.70
2018-12-10T15:12:07.586Z,8.70
2018-12-10T17:14:44.632Z,8.10
2018-12-10T18:18:21.391Z,8.20
2018-12-10T18:20:50.046Z,8.10
2018-12-10T18:23:19.193Z,8.10
2018-12-10T18:25:48.038Z,8.20
2018-12-10T18:28:17.255Z,8.30
2018-12-10T18:30:49.293Z,8.30
2018-12-10T18:33:18.056Z,8.30
2018-12-10T18:35:46.910Z,8.40
2018-12-10T18:38:16.297Z,8.50
2018-12-10T18:40:44.930Z,8.50
2018-12-10T18:43:19.012Z,8.50
2018-12-10T18:45:48.906Z,8.40
2018-12-10T18:48:17.872Z,8.30
2018-12-10T18:50:47.156Z,8.30
2018-12-10T18:53:16.192Z,8.30
2018-12-10T18:55:44.887Z,8.40
2018-12-10T18:58:14.130Z,8.40
2018-12-10T19:00:43.576Z,8.50
2018-12-10T19:03:12.344Z,8.50
2018-12-10T19:05:43.303Z,8.50
2018-12-10T19:08:12.186Z,8.60
2018-12-10T19:10:40.800Z,8.50
2018-12-10T19:13:14.260Z,8.20
2018-12-10T19:18:18.559Z,8.20
2018-12-10T19:20:47.496Z,8.30
2018-12-10T19:23:16.483Z,8.40
2018-12-10T20:08:42.373Z,8.30
2018-12-10T20:11:28.111Z,8.30
2018-12-10T20:14:28.332Z,8.20
2018-12-10T20:35:10.651Z,8.00
2018-12-10T20:37:43.816Z,7.80
2018-12-10T20:40:14.253Z,7.90
2018-12-10T20:42:44.160Z,7.90
2018-12-10T20:45:15.630Z,7.90
2018-12-10T20:47:45.041Z,8.00
2018-12-10T21:24:33.349Z,7.70
2018-12-10T22:51:44.806Z,6.40
